sensor_id;sensor_type;location;lat;lon;timestamp;P1;durP1;ratioP1;P2;durP2;ratioP2
6101;SDS011;3081;50.584;7.032;2023-03-14T00:01:09;8.63;;;1.83;;
6101;SDS011;3081;50.584;7.032;2023-03-14T00:03:38;6.53;;;1.40;;
6101;SDS011;3081;50.584;7.032;2023-03-14T00:06:05;8.70;;;1.30;;
6101;SDS011;3081;50.584;7.032;2023-03-14T00:08:33;7.90;;;1.43;;
6101;SDS011;3081;50.584;7.032;2023-03-14T00:11:03;6.73;;;1.30;;
6101;SDS011;3081;50.584;7.032;2023-03-14T00:13:31;6.30;;;0.80;;
6101;SDS011;3081;50.584;7.032;2023-03-14T00:16:01;6.17;;;1.13;;
6101;SDS011;3081;50.584;7.032;2023-03-14T00:18:30;11.10;;;2.10;;
6101;SDS011;3081;50.584;7.032;2023-03-14T00:20:58;8.13;;;1.10;;
6101;SDS011;3081;50.584;7.032;2023-03-14T00:23:26;6.27;;;1.27;;
6101;SDS011;3081;50.584;7.032;2023-03-14T00:25:53;8.10;;;1.10;;
6101;SDS011;3081;50.584;7.032;2023-03-14T00:28:24;8.27;;;1.00;;
6101;SDS011;3081;50.584;7.032;2023-03-14T00:30:51;4.90;;;0.60;;
6101;SDS011;3081;50.584;7.032;2023-03-14T00:33:18;10.83;;;1.43;;
6101;SDS011;3081;50.584;7.032;2023-03-14T00:35:52;5.57;;;1.10;;
6101;SDS011;3081;50.584;7.032;2023-03-14T00:38:20;8.90;;;1.20;;
6101;SDS011;3081;50.584;7.032;2023-03-14T00:40:49;7.30;;;1.50;;
6101;SDS011;3081;50.584;7.032;2023-03-14T00:43:16;7.73;;;1.10;;
6101;SDS011;3081;50.584;7.032;2023-03-14T00:45:43;10.40;;;1.00;;
6101;SDS011;3081;50.584;7.032;2023-03-14T00:48:10;7.40;;;1.10;;
6101;SDS011;3081;50.584;7.032;2023-03-14T00:50:38;7.93;;;1.47;;
6101;SDS011;3081;50.584;7.032;2023-03-14T00:53:06;7.17;;;1.27;;
6101;SDS011;3081;50.584;7.032;2023-03-14T00:55:35;8.43;;;1.20;;
6101;SDS011;3081;50.584;7.032;2023-03-14T00:58:03;8.60;;;1.60;;
6101;SDS011;3081;50.584;7.032;2023-03-14T01:00:30;6.40;;;1.47;;
6101;SDS011;3081;50.584;7.032;2023-03-14T01:02:57;8.60;;;1.37;;
6101;SDS011;3081;50.584;7.032;2023-03-14T01:05:24;8.77;;;1.63;;
6101;SDS011;3081;50.584;7.032;2023-03-14T01:07:51;6.57;;;1.60;;
6101;SDS011;3081;50.584;7.032;2023-03-14T01:10:19;8.37;;;1.00;;
6101;SDS011;3081;50.584;7.032;2023-03-14T01:12:46;6.20;;;1.57;;
6101;SDS011;3081;50.584;7.032;2023-03-14T01:15:13;5.83;;;1.10;;
6101;SDS011;3081;50.584;7.032;2023-03-14T01:17:40;7.23;;;1.60;;
6101;SDS011;3081;50.584;7.032;2023-03-14T01:20:07;10.93;;;1.20;;
6101;SDS011;3081;50.584;7.032;2023-03-14T01:22:37;11.30;;;1.50;;
6101;SDS011;3081;50.584;7.032;2023-03-14T01:25:05;5.90;;;1.40;;
6101;SDS011;3081;50.584;7.032;2023-03-14T01:27:34;8.33;;;1.63;;
6101;SDS011;3081;50.584;7.032;2023-03-14T01:30:01;4.57;;;1.07;;
6101;SDS011;3081;50.584;7.032;2023-03-14T01:32:29;10.53;;;1.67;;
6101;SDS011;3081;50.584;7.032;2023-03-14T01:34:56;7.00;;;1.70;;
6101;SDS011;3081;50.584;7.032;2023-03-14T01:37:23;6.87;;;1.30;;
6101;SDS011;3081;50.584;7.032;2023-03-14T01:39:50;4.50;;;0.80;;
6101;SDS011;3081;50.584;7.032;2023-03-14T01:42:17;6.43;;;1.30;;
6101;SDS011;3081;50.584;7.032;2023-03-14T01:44:49;5.10;;;0.93;;
6101;SDS011;3081;50.584;7.032;2023-03-14T01:47:18;4.47;;;0.80;;
6101;SDS011;3081;50.584;7.032;2023-03-14T01:49:45;5.83;;;1.33;;
6101;SDS011;3081;50.584;7.032;2023-03-14T01:52:16;5.77;;;1.30;;
6101;SDS011;3081;50.584;7.032;2023-03-14T01:54:47;7.93;;;1.20;;
6101;SDS011;3081;50.584;7.032;2023-03-14T01:57:19;6.50;;;0.80;;
6101;SDS011;3081;50.584;7.032;2023-03-14T01:59:51;5.47;;;1.10;;
6101;SDS011;3081;50.584;7.032;2023-03-14T02:02:23;6.60;;;1.13;;
6101;SDS011;3081;50.584;7.032;2023-03-14T02:04:52;7.10;;;1.20;;
6101;SDS011;3081;50.584;7.032;2023-03-14T02:07:22;7.70;;;1.20;;
6101;SDS011;3081;50.584;7.032;2023-03-14T02:09:53;8.00;;;2.17;;
6101;SDS011;3081;50.584;7.032;2023-03-14T02:12:21;6.87;;;1.30;;
6101;SDS011;3081;50.584;7.032;2023-03-14T02:14:50;8.10;;;1.50;;
6101;SDS011;3081;50.584;7.032;2023-03-14T02:17:18;6.03;;;1.20;;
6101;SDS011;3081;50.584;7.032;2023-03-14T02:19:53;5.73;;;1.30;;
6101;SDS011;3081;50.584;7.032;2023-03-14T02:22:33;8.60;;;1.60;;
6101;SDS011;3081;50.584;7.032;2023-03-14T02:25:03;9.80;;;1.20;;
6101;SDS011;3081;50.584;7.032;2023-03-14T02:27:35;9.33;;;1.63;;
6101;SDS011;3081;50.584;7.032;2023-03-14T02:30:04;9.07;;;1.50;;
6101;SDS011;3081;50.584;7.032;2023-03-14T02:32:32;6.70;;;1.30;;
6101;SDS011;3081;50.584;7.032;2023-03-14T02:35:03;9.80;;;1.60;;
6101;SDS011;3081;50.584;7.032;2023-03-14T02:37:34;6.50;;;1.20;;
6101;SDS011;3081;50.584;7.032;2023-03-14T02:40:05;11.17;;;1.17;;
6101;SDS011;3081;50.584;7.032;2023-03-14T02:42:32;8.00;;;1.20;;
6101;SDS011;3081;50.584;7.032;2023-03-14T02:45:25;12.00;;;2.20;;
6101;SDS011;3081;50.584;7.032;2023-03-14T02:48:11;7.90;;;2.00;;
6101;SDS011;3081;50.584;7.032;2023-03-14T02:50:41;8.87;;;1.77;;
6101;SDS011;3081;50.584;7.032;2023-03-14T02:53:09;9.43;;;1.70;;
6101;SDS011;3081;50.584;7.032;2023-03-14T02:55:40;12.63;;;1.90;;
6101;SDS011;3081;50.584;7.032;2023-03-14T02:58:11;11.50;;;1.83;;
6101;SDS011;3081;50.584;7.032;2023-03-14T03:00:39;4.73;;;1.10;;
6101;SDS011;3081;50.584;7.032;2023-03-14T03:03:06;7.83;;;1.80;;
6101;SDS011;3081;50.584;7.032;2023-03-14T03:05:33;10.90;;;2.10;;
6101;SDS011;3081;50.584;7.032;2023-03-14T03:08:00;8.70;;;1.13;;
6101;SDS011;3081;50.584;7.032;2023-03-14T03:10:28;7.20;;;1.67;;
6101;SDS011;3081;50.584;7.032;2023-03-14T03:12:55;9.23;;;1.30;;
6101;SDS011;3081;50.584;7.032;2023-03-14T03:15:22;11.27;;;1.80;;
6101;SDS011;3081;50.584;7.032;2023-03-14T03:17:50;6.30;;;1.10;;
6101;SDS011;3081;50.584;7.032;2023-03-14T03:20:17;4.60;;;1.00;;
6101;SDS011;3081;50.584;7.032;2023-03-14T03:22:44;6.27;;;1.40;;
6101;SDS011;3081;50.584;7.032;2023-03-14T03:25:11;8.50;;;1.80;;
6101;SDS011;3081;50.584;7.032;2023-03-14T03:27:38;8.50;;;1.47;;
6101;SDS011;3081;50.584;7.032;2023-03-14T03:30:05;8.90;;;1.67;;
6101;SDS011;3081;50.584;7.032;2023-03-14T03:32:34;4.67;;;1.00;;
6101;SDS011;3081;50.584;7.032;2023-03-14T03:35:03;5.50;;;1.30;;
6101;SDS011;3081;50.584;7.032;2023-03-14T03:37:30;6.77;;;1.20;;
6101;SDS011;3081;50.584;7.032;2023-03-14T03:39:58;4.63;;;0.90;;
6101;SDS011;3081;50.584;7.032;2023-03-14T03:42:26;4.73;;;1.03;;
6101;SDS011;3081;50.584;7.032;2023-03-14T03:44:53;4.60;;;0.93;;
6101;SDS011;3081;50.584;7.032;2023-03-14T03:47:20;3.90;;;0.80;;
6101;SDS011;3081;50.584;7.032;2023-03-14T03:49:47;7.20;;;1.07;;
6101;SDS011;3081;50.584;7.032;2023-03-14T03:52:15;5.17;;;1.20;;
6101;SDS011;3081;50.584;7.032;2023-03-14T03:54:42;8.13;;;1.10;;
6101;SDS011;3081;50.584;7.032;2023-03-14T03:57:09;7.00;;;1.20;;
6101;SDS011;3081;50.584;7.032;2023-03-14T03:59:36;3.67;;;0.50;;
6101;SDS011;3081;50.584;7.032;2023-03-14T04:02:05;6.70;;;1.00;;
6101;SDS011;3081;50.584;7.032;2023-03-14T04:04:32;2.90;;;0.70;;
6101;SDS011;3081;50.584;7.032;2023-03-14T04:06:59;5.40;;;0.80;;
6101;SDS011;3081;50.584;7.032;2023-03-14T04:09:27;2.13;;;0.60;;
6101;SDS011;3081;50.584;7.032;2023-03-14T04:11:54;3.97;;;0.70;;
6101;SDS011;3081;50.584;7.032;2023-03-14T04:14:21;2.60;;;0.70;;
6101;SDS011;3081;50.584;7.032;2023-03-14T04:16:48;2.20;;;0.60;;
6101;SDS011;3081;50.584;7.032;2023-03-14T04:19:15;3.47;;;0.80;;
6101;SDS011;3081;50.584;7.032;2023-03-14T04:21:42;2.20;;;0.50;;
6101;SDS011;3081;50.584;7.032;2023-03-14T04:24:11;2.83;;;0.57;;
6101;SDS011;3081;50.584;7.032;2023-03-14T04:26:40;4.00;;;0.60;;
6101;SDS011;3081;50.584;7.032;2023-03-14T04:29:07;3.33;;;0.63;;
6101;SDS011;3081;50.584;7.032;2023-03-14T04:31:34;3.23;;;0.60;;
6101;SDS011;3081;50.584;7.032;2023-03-14T04:34:00;3.23;;;0.60;;
6101;SDS011;3081;50.584;7.032;2023-03-14T04:36:27;3.80;;;0.50;;
6101;SDS011;3081;50.584;7.032;2023-03-14T04:38:54;2.40;;;0.60;;
6101;SDS011;3081;50.584;7.032;2023-03-14T04:41:21;3.87;;;0.60;;
6101;SDS011;3081;50.584;7.032;2023-03-14T04:43:49;3.10;;;0.50;;
6101;SDS011;3081;50.584;7.032;2023-03-14T04:46:16;3.00;;;0.60;;
6101;SDS011;3081;50.584;7.032;2023-03-14T04:48:43;2.40;;;0.50;;
6101;SDS011;3081;50.584;7.032;2023-03-14T04:51:10;3.10;;;0.50;;
6101;SDS011;3081;50.584;7.032;2023-03-14T04:53:37;2.10;;;0.57;;
6101;SDS011;3081;50.584;7.032;2023-03-14T04:56:04;2.00;;;0.70;;
6101;SDS011;3081;50.584;7.032;2023-03-14T04:58:32;1.70;;;0.50;;
6101;SDS011;3081;50.584;7.032;2023-03-14T05:01:02;2.07;;;0.50;;
6101;SDS011;3081;50.584;7.032;2023-03-14T05:03:30;1.60;;;0.40;;
6101;SDS011;3081;50.584;7.032;2023-03-14T05:05:57;4.30;;;0.60;;
6101;SDS011;3081;50.584;7.032;2023-03-14T05:08:25;1.50;;;0.50;;
6101;SDS011;3081;50.584;7.032;2023-03-14T05:10:52;1.53;;;0.50;;
6101;SDS011;3081;50.584;7.032;2023-03-14T05:13:19;1.97;;;0.50;;
6101;SDS011;3081;50.584;7.032;2023-03-14T05:15:47;1.80;;;0.50;;
6101;SDS011;3081;50.584;7.032;2023-03-14T05:18:17;2.00;;;0.60;;
6101;SDS011;3081;50.584;7.032;2023-03-14T05:20:44;1.63;;;0.57;;
6101;SDS011;3081;50.584;7.032;2023-03-14T05:23:10;2.20;;;0.57;;
6101;SDS011;3081;50.584;7.032;2023-03-14T05:25:37;1.63;;;0.50;;
6101;SDS011;3081;50.584;7.032;2023-03-14T05:28:05;1.47;;;0.50;;
6101;SDS011;3081;50.584;7.032;2023-03-14T05:30:32;1.80;;;0.50;;
6101;SDS011;3081;50.584;7.032;2023-03-14T05:32:58;1.30;;;0.40;;
6101;SDS011;3081;50.584;7.032;2023-03-14T05:35:27;1.67;;;1.03;;
6101;SDS011;3081;50.584;7.032;2023-03-14T05:37:54;2.53;;;0.57;;
6101;SDS011;3081;50.584;7.032;2023-03-14T05:40:20;1.70;;;0.50;;
6101;SDS011;3081;50.584;7.032;2023-03-14T05:42:47;1.40;;;0.50;;
6101;SDS011;3081;50.584;7.032;2023-03-14T05:45:14;1.60;;;0.60;;
6101;SDS011;3081;50.584;7.032;2023-03-14T05:47:41;3.30;;;0.40;;
6101;SDS011;3081;50.584;7.032;2023-03-14T05:50:09;1.40;;;0.50;;
6101;SDS011;3081;50.584;7.032;2023-03-14T05:52:38;1.30;;;0.40;;
6101;SDS011;3081;50.584;7.032;2023-03-14T05:55:05;1.67;;;0.40;;
6101;SDS011;3081;50.584;7.032;2023-03-14T05:57:32;1.63;;;0.43;;
6101;SDS011;3081;50.584;7.032;2023-03-14T05:59:59;1.73;;;0.70;;
6101;SDS011;3081;50.584;7.032;2023-03-14T06:02:26;1.50;;;0.50;;
6101;SDS011;3081;50.584;7.032;2023-03-14T06:04:53;1.85;;;0.60;;
6101;SDS011;3081;50.584;7.032;2023-03-14T06:07:20;2.03;;;1.00;;
6101;SDS011;3081;50.584;7.032;2023-03-14T06:09:48;1.40;;;0.50;;
6101;SDS011;3081;50.584;7.032;2023-03-14T06:12:15;2.87;;;0.83;;
6101;SDS011;3081;50.584;7.032;2023-03-14T06:14:42;1.47;;;0.60;;
6101;SDS011;3081;50.584;7.032;2023-03-14T06:17:09;2.70;;;0.40;;
6101;SDS011;3081;50.584;7.032;2023-03-14T06:19:36;1.30;;;0.50;;
6101;SDS011;3081;50.584;7.032;2023-03-14T06:22:03;2.90;;;0.50;;
6101;SDS011;3081;50.584;7.032;2023-03-14T06:24:29;1.10;;;0.40;;
6101;SDS011;3081;50.584;7.032;2023-03-14T06:26:58;1.20;;;0.50;;
6101;SDS011;3081;50.584;7.032;2023-03-14T06:29:25;1.60;;;0.50;;
6101;SDS011;3081;50.584;7.032;2023-03-14T06:31:51;1.30;;;0.40;;
6101;SDS011;3081;50.584;7.032;2023-03-14T06:34:18;1.37;;;0.40;;
6101;SDS011;3081;50.584;7.032;2023-03-14T06:36:45;3.13;;;0.50;;
6101;SDS011;3081;50.584;7.032;2023-03-14T06:39:12;3.33;;;0.43;;
6101;SDS011;3081;50.584;7.032;2023-03-14T06:41:39;1.10;;;0.40;;
6101;SDS011;3081;50.584;7.032;2023-03-14T06:44:08;1.20;;;0.47;;
6101;SDS011;3081;50.584;7.032;2023-03-14T06:46:35;3.10;;;1.33;;
6101;SDS011;3081;50.584;7.032;2023-03-14T06:49:01;1.10;;;0.40;;
6101;SDS011;3081;50.584;7.032;2023-03-14T06:51:28;1.10;;;0.40;;
6101;SDS011;3081;50.584;7.032;2023-03-14T06:53:55;1.63;;;0.57;;
6101;SDS011;3081;50.584;7.032;2023-03-14T06:56:22;1.83;;;0.57;;
6101;SDS011;3081;50.584;7.032;2023-03-14T06:58:49;1.20;;;0.50;;
6101;SDS011;3081;50.584;7.032;2023-03-14T07:01:22;1.10;;;0.40;;
6101;SDS011;3081;50.584;7.032;2023-03-14T07:03:50;1.50;;;0.40;;
6101;SDS011;3081;50.584;7.032;2023-03-14T07:06:18;1.10;;;0.43;;
6101;SDS011;3081;50.584;7.032;2023-03-14T07:08:45;1.37;;;0.60;;
6101;SDS011;3081;50.584;7.032;2023-03-14T07:11:11;4.63;;;0.53;;
6101;SDS011;3081;50.584;7.032;2023-03-14T07:13:38;1.80;;;0.60;;
6101;SDS011;3081;50.584;7.032;2023-03-14T07:16:06;1.20;;;0.50;;
6101;SDS011;3081;50.584;7.032;2023-03-14T07:18:35;1.20;;;0.40;;
6101;SDS011;3081;50.584;7.032;2023-03-14T07:21:02;1.10;;;0.40;;
6101;SDS011;3081;50.584;7.032;2023-03-14T07:23:29;1.83;;;0.50;;
6101;SDS011;3081;50.584;7.032;2023-03-14T07:25:56;1.60;;;0.50;;
6101;SDS011;3081;50.584;7.032;2023-03-14T07:28:23;1.20;;;0.40;;
6101;SDS011;3081;50.584;7.032;2023-03-14T07:30:50;1.10;;;0.40;;
6101;SDS011;3081;50.584;7.032;2023-03-14T07:33:17;1.70;;;0.40;;
6101;SDS011;3081;50.584;7.032;2023-03-14T07:35:45;1.20;;;0.43;;
6101;SDS011;3081;50.584;7.032;2023-03-14T07:38:13;1.20;;;0.40;;
6101;SDS011;3081;50.584;7.032;2023-03-14T07:40:39;1.10;;;0.40;;
6101;SDS011;3081;50.584;7.032;2023-03-14T07:43:06;6.03;;;0.50;;
6101;SDS011;3081;50.584;7.032;2023-03-14T07:45:33;1.20;;;0.40;;
6101;SDS011;3081;50.584;7.032;2023-03-14T07:48:00;2.63;;;0.40;;
6101;SDS011;3081;50.584;7.032;2023-03-14T07:50:27;1.20;;;0.40;;
6101;SDS011;3081;50.584;7.032;2023-03-14T07:52:55;1.23;;;0.40;;
6101;SDS011;3081;50.584;7.032;2023-03-14T07:55:22;2.40;;;0.60;;
6101;SDS011;3081;50.584;7.032;2023-03-14T07:57:49;1.40;;;0.40;;
6101;SDS011;3081;50.584;7.032;2023-03-14T08:00:16;1.50;;;0.40;;
6101;SDS011;3081;50.584;7.032;2023-03-14T08:02:44;1.50;;;0.40;;
6101;SDS011;3081;50.584;7.032;2023-03-14T08:05:11;1.80;;;0.60;;
6101;SDS011;3081;50.584;7.032;2023-03-14T08:07:37;5.13;;;0.50;;
6101;SDS011;3081;50.584;7.032;2023-03-14T08:10:06;1.60;;;0.50;;
6101;SDS011;3081;50.584;7.032;2023-03-14T08:12:34;1.80;;;0.50;;
6101;SDS011;3081;50.584;7.032;2023-03-14T08:15:01;1.63;;;0.40;;
6101;SDS011;3081;50.584;7.032;2023-03-14T08:17:28;1.70;;;0.40;;
6101;SDS011;3081;50.584;7.032;2023-03-14T08:19:55;2.07;;;0.50;;
6101;SDS011;3081;50.584;7.032;2023-03-14T08:22:22;1.80;;;0.50;;
6101;SDS011;3081;50.584;7.032;2023-03-14T08:24:49;2.10;;;0.50;;
6101;SDS011;3081;50.584;7.032;2023-03-14T08:27:17;1.93;;;0.40;;
6101;SDS011;3081;50.584;7.032;2023-03-14T08:29:44;2.00;;;0.40;;
6101;SDS011;3081;50.584;7.032;2023-03-14T08:32:11;2.40;;;0.60;;
6101;SDS011;3081;50.584;7.032;2023-03-14T08:34:38;2.10;;;0.40;;
6101;SDS011;3081;50.584;7.032;2023-03-14T08:37:05;2.10;;;0.40;;
6101;SDS011;3081;50.584;7.032;2023-03-14T08:39:32;2.40;;;0.53;;
6101;SDS011;3081;50.584;7.032;2023-03-14T08:41:58;2.30;;;0.50;;
6101;SDS011;3081;50.584;7.032;2023-03-14T08:44:27;2.70;;;0.50;;
6101;SDS011;3081;50.584;7.032;2023-03-14T08:46:54;2.20;;;0.40;;
6101;SDS011;3081;50.584;7.032;2023-03-14T08:49:21;2.30;;;0.40;;
6101;SDS011;3081;50.584;7.032;2023-03-14T08:51:48;2.70;;;0.50;;
6101;SDS011;3081;50.584;7.032;2023-03-14T08:54:14;2.50;;;0.50;;
6101;SDS011;3081;50.584;7.032;2023-03-14T08:56:42;2.50;;;0.40;;
6101;SDS011;3081;50.584;7.032;2023-03-14T08:59:08;2.50;;;0.40;;
6101;SDS011;3081;50.584;7.032;2023-03-14T09:01:37;2.50;;;0.40;;
6101;SDS011;3081;50.584;7.032;2023-03-14T09:04:04;2.70;;;0.50;;
6101;SDS011;3081;50.584;7.032;2023-03-14T09:06:31;2.70;;;0.50;;
6101;SDS011;3081;50.584;7.032;2023-03-14T09:08:58;2.80;;;0.40;;
6101;SDS011;3081;50.584;7.032;2023-03-14T09:11:26;3.23;;;0.50;;
6101;SDS011;3081;50.584;7.032;2023-03-14T09:13:53;3.23;;;0.40;;
6101;SDS011;3081;50.584;7.032;2023-03-14T09:16:20;2.80;;;0.50;;
6101;SDS011;3081;50.584;7.032;2023-03-14T09:18:48;2.70;;;0.40;;
6101;SDS011;3081;50.584;7.032;2023-03-14T09:21:15;2.67;;;0.40;;
6101;SDS011;3081;50.584;7.032;2023-03-14T09:23:42;2.53;;;0.40;;
6101;SDS011;3081;50.584;7.032;2023-03-14T09:26:10;2.70;;;0.40;;
6101;SDS011;3081;50.584;7.032;2023-03-14T09:28:37;2.40;;;0.40;;
6101;SDS011;3081;50.584;7.032;2023-03-14T09:31:05;2.30;;;0.40;;
6101;SDS011;3081;50.584;7.032;2023-03-14T09:33:33;2.10;;;0.50;;
6101;SDS011;3081;50.584;7.032;2023-03-14T09:36:02;1.90;;;0.40;;
6101;SDS011;3081;50.584;7.032;2023-03-14T09:38:29;2.03;;;0.40;;
6101;SDS011;3081;50.584;7.032;2023-03-14T09:40:58;2.10;;;0.70;;
6101;SDS011;3081;50.584;7.032;2023-03-14T09:43:27;1.70;;;0.40;;
6101;SDS011;3081;50.584;7.032;2023-03-14T09:45:57;1.50;;;0.40;;
6101;SDS011;3081;50.584;7.032;2023-03-14T09:48:26;2.00;;;0.40;;
6101;SDS011;3081;50.584;7.032;2023-03-14T09:50:56;1.50;;;0.40;;
6101;SDS011;3081;50.584;7.032;2023-03-14T09:53:31;1.77;;;0.40;;
6101;SDS011;3081;50.584;7.032;2023-03-14T09:56:03;2.30;;;0.50;;
6101;SDS011;3081;50.584;7.032;2023-03-14T09:58:30;1.50;;;0.53;;
6101;SDS011;3081;50.584;7.032;2023-03-14T10:00:57;1.30;;;0.50;;
6101;SDS011;3081;50.584;7.032;2023-03-14T10:03:31;2.77;;;0.50;;
6101;SDS011;3081;50.584;7.032;2023-03-14T10:06:00;3.13;;;0.50;;
6101;SDS011;3081;50.584;7.032;2023-03-14T10:08:29;1.43;;;0.50;;
6101;SDS011;3081;50.584;7.032;2023-03-14T10:10:56;10.93;;;1.80;;
6101;SDS011;3081;50.584;7.032;2023-03-14T10:13:25;1.60;;;0.50;;
6101;SDS011;3081;50.584;7.032;2023-03-14T10:15:54;1.40;;;0.50;;
6101;SDS011;3081;50.584;7.032;2023-03-14T10:18:24;2.10;;;0.60;;
6101;SDS011;3081;50.584;7.032;2023-03-14T10:21:01;1.30;;;0.40;;
6101;SDS011;3081;50.584;7.032;2023-03-14T10:23:31;1.30;;;0.40;;
6101;SDS011;3081;50.584;7.032;2023-03-14T10:26:03;1.50;;;0.50;;
6101;SDS011;3081;50.584;7.032;2023-03-14T10:28:33;1.43;;;0.50;;
6101;SDS011;3081;50.584;7.032;2023-03-14T10:31:04;2.17;;;0.50;;
6101;SDS011;3081;50.584;7.032;2023-03-14T10:33:32;1.50;;;0.50;;
6101;SDS011;3081;50.584;7.032;2023-03-14T10:36:00;1.60;;;0.60;;
6101;SDS011;3081;50.584;7.032;2023-03-14T10:38:29;1.50;;;0.50;;
6101;SDS011;3081;50.584;7.032;2023-03-14T10:40:58;2.03;;;0.70;;
6101;SDS011;3081;50.584;7.032;2023-03-14T10:43:26;1.87;;;0.63;;
6101;SDS011;3081;50.584;7.032;2023-03-14T10:45:58;1.60;;;0.60;;
6101;SDS011;3081;50.584;7.032;2023-03-14T10:48:31;1.57;;;0.53;;
6101;SDS011;3081;50.584;7.032;2023-03-14T10:51:02;2.13;;;0.97;;
6101;SDS011;3081;50.584;7.032;2023-03-14T10:53:40;1.77;;;0.80;;
6101;SDS011;3081;50.584;7.032;2023-03-14T10:56:11;3.00;;;1.10;;
6101;SDS011;3081;50.584;7.032;2023-03-14T10:58:40;3.10;;;1.47;;
6101;SDS011;3081;50.584;7.032;2023-03-14T11:01:12;1.60;;;0.80;;
6101;SDS011;3081;50.584;7.032;2023-03-14T11:03:51;2.80;;;1.40;;
6101;SDS011;3081;50.584;7.032;2023-03-14T11:06:24;2.10;;;1.23;;
6101;SDS011;3081;50.584;7.032;2023-03-14T11:09:01;2.43;;;1.20;;
6101;SDS011;3081;50.584;7.032;2023-03-14T11:11:33;1.83;;;0.80;;
6101;SDS011;3081;50.584;7.032;2023-03-14T11:14:07;2.60;;;1.10;;
6101;SDS011;3081;50.584;7.032;2023-03-14T11:16:44;5.53;;;1.27;;
6101;SDS011;3081;50.584;7.032;2023-03-14T11:22:20;3.37;;;1.57;;
6101;SDS011;3081;50.584;7.032;2023-03-14T11:25:02;3.53;;;1.87;;
6101;SDS011;3081;50.584;7.032;2023-03-14T11:27:41;2.47;;;1.07;;
6101;SDS011;3081;50.584;7.032;2023-03-14T11:30:19;3.53;;;2.03;;
6101;SDS011;3081;50.584;7.032;2023-03-14T11:32:54;2.87;;;1.33;;
6101;SDS011;3081;50.584;7.032;2023-03-14T11:35:26;4.10;;;1.80;;
6101;SDS011;3081;50.584;7.032;2023-03-14T11:38:00;3.83;;;2.07;;
6101;SDS011;3081;50.584;7.032;2023-03-14T11:40:37;4.70;;;1.70;;
6101;SDS011;3081;50.584;7.032;2023-03-14T11:43:06;3.57;;;1.30;;
6101;SDS011;3081;50.584;7.032;2023-03-14T11:45:39;4.60;;;1.60;;
6101;SDS011;3081;50.584;7.032;2023-03-14T11:48:16;3.10;;;1.60;;
6101;SDS011;3081;50.584;7.032;2023-03-14T11:50:51;3.43;;;1.53;;
6101;SDS011;3081;50.584;7.032;2023-03-14T11:53:21;3.03;;;1.27;;
6101;SDS011;3081;50.584;7.032;2023-03-14T11:55:58;3.03;;;1.30;;
6101;SDS011;3081;50.584;7.032;2023-03-14T11:58:25;2.73;;;0.73;;
6101;SDS011;3081;50.584;7.032;2023-03-14T12:00:54;2.47;;;0.73;;
6101;SDS011;3081;50.584;7.032;2023-03-14T12:03:24;2.63;;;0.63;;
6101;SDS011;3081;50.584;7.032;2023-03-14T12:05:59;3.17;;;0.80;;
6101;SDS011;3081;50.584;7.032;2023-03-14T12:08:36;2.20;;;0.50;;
6101;SDS011;3081;50.584;7.032;2023-03-14T12:11:10;2.43;;;0.60;;
6101;SDS011;3081;50.584;7.032;2023-03-14T12:13:46;2.70;;;0.70;;
6101;SDS011;3081;50.584;7.032;2023-03-14T12:16:24;2.80;;;0.60;;
6101;SDS011;3081;50.584;7.032;2023-03-14T12:19:21;3.23;;;0.70;;
6101;SDS011;3081;50.584;7.032;2023-03-14T12:21:54;3.23;;;0.60;;
6101;SDS011;3081;50.584;7.032;2023-03-14T12:24:24;4.23;;;0.70;;
6101;SDS011;3081;50.584;7.032;2023-03-14T12:26:55;4.40;;;0.50;;
6101;SDS011;3081;50.584;7.032;2023-03-14T12:29:23;4.50;;;0.60;;
6101;SDS011;3081;50.584;7.032;2023-03-14T12:32:05;4.90;;;0.70;;
6101;SDS011;3081;50.584;7.032;2023-03-14T12:34:34;4.87;;;0.77;;
6101;SDS011;3081;50.584;7.032;2023-03-14T12:37:06;5.20;;;0.63;;
6101;SDS011;3081;50.584;7.032;2023-03-14T12:39:45;6.57;;;0.80;;
6101;SDS011;3081;50.584;7.032;2023-03-14T12:42:21;4.83;;;0.70;;
6101;SDS011;3081;50.584;7.032;2023-03-14T12:45:21;3.93;;;0.70;;
6101;SDS011;3081;50.584;7.032;2023-03-14T12:48:01;4.33;;;1.43;;
6101;SDS011;3081;50.584;7.032;2023-03-14T12:50:45;3.70;;;0.93;;
6101;SDS011;3081;50.584;7.032;2023-03-14T12:53:33;2.27;;;0.70;;
6101;SDS011;3081;50.584;7.032;2023-03-14T12:56:17;1.50;;;0.50;;
6101;SDS011;3081;50.584;7.032;2023-03-14T12:58:56;1.60;;;0.60;;
6101;SDS011;3081;50.584;7.032;2023-03-14T13:01:35;2.50;;;0.77;;
6101;SDS011;3081;50.584;7.032;2023-03-14T13:04:03;3.80;;;0.70;;
6101;SDS011;3081;50.584;7.032;2023-03-14T13:06:47;2.90;;;0.80;;
6101;SDS011;3081;50.584;7.032;2023-03-14T13:09:35;2.43;;;1.00;;
6101;SDS011;3081;50.584;7.032;2023-03-14T13:12:23;1.37;;;0.50;;
6101;SDS011;3081;50.584;7.032;2023-03-14T13:14:59;1.73;;;0.67;;
6101;SDS011;3081;50.584;7.032;2023-03-14T13:17:30;1.70;;;0.60;;
6101;SDS011;3081;50.584;7.032;2023-03-14T13:20:00;1.60;;;0.70;;
6101;SDS011;3081;50.584;7.032;2023-03-14T13:22:31;1.80;;;0.70;;
6101;SDS011;3081;50.584;7.032;2023-03-14T13:25:02;3.33;;;1.13;;
6101;SDS011;3081;50.584;7.032;2023-03-14T13:27:32;4.20;;;1.00;;
6101;SDS011;3081;50.584;7.032;2023-03-14T13:30:11;2.77;;;0.97;;
6101;SDS011;3081;50.584;7.032;2023-03-14T13:32:43;1.93;;;0.63;;
6101;SDS011;3081;50.584;7.032;2023-03-14T13:35:14;2.03;;;0.70;;
6101;SDS011;3081;50.584;7.032;2023-03-14T13:37:43;5.00;;;0.93;;
6101;SDS011;3081;50.584;7.032;2023-03-14T13:40:18;2.80;;;1.40;;
6101;SDS011;3081;50.584;7.032;2023-03-14T13:42:47;2.17;;;0.70;;
6101;SDS011;3081;50.584;7.032;2023-03-14T13:45:15;2.20;;;0.67;;
6101;SDS011;3081;50.584;7.032;2023-03-14T13:47:42;1.90;;;0.70;;
6101;SDS011;3081;50.584;7.032;2023-03-14T13:50:14;2.30;;;0.80;;
6101;SDS011;3081;50.584;7.032;2023-03-14T13:52:42;7.03;;;0.93;;
6101;SDS011;3081;50.584;7.032;2023-03-14T13:55:13;7.63;;;0.67;;
6101;SDS011;3081;50.584;7.032;2023-03-14T13:57:42;2.17;;;0.70;;
6101;SDS011;3081;50.584;7.032;2023-03-14T14:00:19;2.70;;;0.80;;
6101;SDS011;3081;50.584;7.032;2023-03-14T14:02:48;2.70;;;0.80;;
6101;SDS011;3081;50.584;7.032;2023-03-14T14:05:16;2.77;;;0.90;;
6101;SDS011;3081;50.584;7.032;2023-03-14T14:07:43;4.60;;;1.23;;
6101;SDS011;3081;50.584;7.032;2023-03-14T14:10:11;4.50;;;0.80;;
6101;SDS011;3081;50.584;7.032;2023-03-14T14:12:40;2.07;;;0.90;;
6101;SDS011;3081;50.584;7.032;2023-03-14T14:15:11;2.30;;;0.80;;
6101;SDS011;3081;50.584;7.032;2023-03-14T14:17:43;2.63;;;1.17;;
6101;SDS011;3081;50.584;7.032;2023-03-14T14:20:14;3.10;;;1.00;;
6101;SDS011;3081;50.584;7.032;2023-03-14T14:22:48;4.10;;;1.00;;
6101;SDS011;3081;50.584;7.032;2023-03-14T14:25:16;3.97;;;1.20;;
6101;SDS011;3081;50.584;7.032;2023-03-14T14:27:46;3.83;;;1.50;;
6101;SDS011;3081;50.584;7.032;2023-03-14T14:30:25;5.03;;;1.37;;
6101;SDS011;3081;50.584;7.032;2023-03-14T14:33:12;3.30;;;1.17;;
6101;SDS011;3081;50.584;7.032;2023-03-14T14:35:49;1.50;;;0.70;;
6101;SDS011;3081;50.584;7.032;2023-03-14T14:38:18;2.37;;;0.70;;
6101;SDS011;3081;50.584;7.032;2023-03-14T14:40:48;3.73;;;1.00;;
6101;SDS011;3081;50.584;7.032;2023-03-14T14:43:17;7.80;;;1.77;;
6101;SDS011;3081;50.584;7.032;2023-03-14T14:45:47;2.33;;;1.00;;
6101;SDS011;3081;50.584;7.032;2023-03-14T14:48:18;2.40;;;0.90;;
6101;SDS011;3081;50.584;7.032;2023-03-14T14:50:54;6.00;;;1.30;;
6101;SDS011;3081;50.584;7.032;2023-03-14T14:53:26;2.37;;;0.90;;
6101;SDS011;3081;50.584;7.032;2023-03-14T14:55:56;3.60;;;1.37;;
6101;SDS011;3081;50.584;7.032;2023-03-14T14:58:24;2.83;;;1.03;;
6101;SDS011;3081;50.584;7.032;2023-03-14T15:00:54;3.83;;;1.03;;
6101;SDS011;3081;50.584;7.032;2023-03-14T15:03:29;4.30;;;1.20;;
6101;SDS011;3081;50.584;7.032;2023-03-14T15:05:58;3.50;;;1.03;;
6101;SDS011;3081;50.584;7.032;2023-03-14T15:08:26;5.20;;;0.70;;
6101;SDS011;3081;50.584;7.032;2023-03-14T15:10:53;1.20;;;0.60;;
6101;SDS011;3081;50.584;7.032;2023-03-14T15:13:20;11.60;;;1.90;;
6101;SDS011;3081;50.584;7.032;2023-03-14T15:15:47;5.23;;;0.87;;
6101;SDS011;3081;50.584;7.032;2023-03-14T15:18:20;5.97;;;0.87;;
6101;SDS011;3081;50.584;7.032;2023-03-14T15:20:49;2.73;;;0.70;;
6101;SDS011;3081;50.584;7.032;2023-03-14T15:23:18;8.80;;;1.00;;
6101;SDS011;3081;50.584;7.032;2023-03-14T15:25:45;1.10;;;0.50;;
6101;SDS011;3081;50.584;7.032;2023-03-14T15:28:17;2.50;;;0.50;;
6101;SDS011;3081;50.584;7.032;2023-03-14T15:30:46;1.20;;;0.50;;
6101;SDS011;3081;50.584;7.032;2023-03-14T15:33:13;6.70;;;0.77;;